createdAt,value
2023-10-26T00:00:38.675Z,15.68
2023-10-26T00:03:05.488Z,15.23
2023-10-26T00:05:32.340Z,13.75
2023-10-26T00:07:59.026Z,16.63
2023-10-26T00:10:25.899Z,15.00
2023-10-26T00:12:52.609Z,13.55
2023-10-26T00:15:19.576Z,16.00
2023-10-26T00:17:46.570Z,16.67
2023-10-26T00:20:13.601Z,16.13
2023-10-26T00:22:40.403Z,15.50
2023-10-26T00:25:07.527Z,14.93
2023-10-26T00:27:34.937Z,14.13
2023-10-26T00:30:01.624Z,15.65
2023-10-26T00:32:29.025Z,13.88
2023-10-26T00:34:55.721Z,14.27
2023-10-26T00:37:23.196Z,15.48
2023-10-26T00:39:49.937Z,15.98
2023-10-26T00:42:16.648Z,14.82
2023-10-26T00:44:47.469Z,15.15
2023-10-26T00:47:15.941Z,14.70
2023-10-26T00:49:43.355Z,16.48
2023-10-26T00:52:11.179Z,17.15
2023-10-26T00:54:40.644Z,17.45
2023-10-26T00:57:07.319Z,17.75
2023-10-26T00:59:34.974Z,19.48
2023-10-26T01:02:02.407Z,15.68
2023-10-26T01:04:29.370Z,18.73
2023-10-26T01:06:56.182Z,19.00
2023-10-26T01:09:22.965Z,18.83
2023-10-26T01:11:49.664Z,20.38
2023-10-26T01:14:16.665Z,20.00
2023-10-26T01:16:43.282Z,19.27
2023-10-26T01:19:10.909Z,20.17
2023-10-26T01:21:50.808Z,17.45
2023-10-26T01:24:17.706Z,19.48
2023-10-26T01:26:44.591Z,18.80
2023-10-26T01:29:11.393Z,18.75
2023-10-26T01:31:38.123Z,21.95
2023-10-26T01:34:05.042Z,20.50
2023-10-26T01:36:32.273Z,18.33
2023-10-26T01:39:01.351Z,21.40
2023-10-26T01:41:32.106Z,21.13
2023-10-26T01:43:59.230Z,23.90
2023-10-26T01:46:25.922Z,17.67
2023-10-26T01:48:52.821Z,23.58
2023-10-26T01:51:19.955Z,22.83
2023-10-26T01:53:46.591Z,26.25
2023-10-26T01:56:13.367Z,25.58
2023-10-26T01:58:40.121Z,27.70
2023-10-26T02:01:07.018Z,25.60
2023-10-26T02:03:34.007Z,24.15
2023-10-26T02:06:02.802Z,25.08
2023-10-26T02:08:30.196Z,20.92
2023-10-26T02:10:56.880Z,25.15
2023-10-26T02:13:23.599Z,30.00
2023-10-26T02:15:50.266Z,25.75
2023-10-26T02:18:16.931Z,22.95
2023-10-26T02:20:43.726Z,18.85
2023-10-26T02:23:10.429Z,23.08
2023-10-26T02:25:37.071Z,21.75
2023-10-26T02:28:04.173Z,19.85
2023-10-26T02:30:30.947Z,20.08
2023-10-26T02:32:57.712Z,19.67
2023-10-26T02:35:24.686Z,20.20
2023-10-26T02:37:51.470Z,18.48
2023-10-26T02:40:18.105Z,20.85
2023-10-26T02:42:44.696Z,24.13
2023-10-26T02:45:11.672Z,22.08
2023-10-26T02:47:41.640Z,26.27
2023-10-26T02:50:09.301Z,19.00
2023-10-26T02:52:36.822Z,19.85
2023-10-26T02:55:05.123Z,21.15
2023-10-26T02:57:31.947Z,18.15
2023-10-26T02:59:58.769Z,18.05
2023-10-26T03:02:25.532Z,17.48
2023-10-26T03:04:52.632Z,17.30
2023-10-26T03:07:23.807Z,18.02
2023-10-26T03:09:51.270Z,27.25
2023-10-26T03:12:19.675Z,24.58
2023-10-26T03:14:46.368Z,25.27
2023-10-26T03:17:16.839Z,19.42
2023-10-26T03:19:44.783Z,16.35
2023-10-26T03:22:11.764Z,16.70
2023-10-26T03:24:38.533Z,27.45
2023-10-26T03:27:05.431Z,20.75
2023-10-26T03:29:32.229Z,19.95
2023-10-26T03:31:59.728Z,26.98
2023-10-26T03:34:26.394Z,40.47
2023-10-26T03:36:53.190Z,47.85
2023-10-26T03:39:20.207Z,43.95
2023-10-26T03:41:46.991Z,24.75
2023-10-26T03:44:13.680Z,31.00
2023-10-26T03:46:40.326Z,32.95
2023-10-26T03:49:07.145Z,17.35
2023-10-26T03:51:34.285Z,21.77
2023-10-26T03:54:01.020Z,20.08
2023-10-26T03:56:27.728Z,17.63
2023-10-26T03:58:54.481Z,18.42
2023-10-26T04:01:21.588Z,15.55
2023-10-26T04:03:48.161Z,20.27
2023-10-26T04:06:14.950Z,25.25
2023-10-26T04:08:41.689Z,22.70
2023-10-26T04:11:08.340Z,26.20
2023-10-26T04:13:35.509Z,24.08
2023-10-26T04:16:03.023Z,14.23
2023-10-26T04:18:30.337Z,18.55
2023-10-26T04:20:57.166Z,26.25
2023-10-26T04:23:24.107Z,24.02
2023-10-26T04:25:55.073Z,30.33
2023-10-26T04:28:22.209Z,26.60
2023-10-26T04:30:49.229Z,16.88
2023-10-26T04:33:18.430Z,14.70
2023-10-26T04:35:46.131Z,28.83
2023-10-26T04:38:12.788Z,25.65
2023-10-26T04:40:39.938Z,38.58
2023-10-26T04:43:07.363Z,23.63
2023-10-26T04:45:34.260Z,19.23
2023-10-26T04:48:02.234Z,29.65
2023-10-26T04:50:31.260Z,27.70
2023-10-26T04:52:58.738Z,42.83
2023-10-26T04:55:25.464Z,54.63
2023-10-26T04:57:52.124Z,34.33
2023-10-26T05:00:19.014Z,28.80
2023-10-26T05:02:45.639Z,44.47
2023-10-26T05:05:12.323Z,30.42
2023-10-26T05:07:39.212Z,31.20
2023-10-26T05:10:06.555Z,72.03
2023-10-26T05:12:33.251Z,43.53
2023-10-26T05:15:00.166Z,50.72
2023-10-26T05:17:26.909Z,52.50
2023-10-26T05:19:53.626Z,28.90
2023-10-26T05:22:20.547Z,49.75
2023-10-26T05:24:47.225Z,50.35
2023-10-26T05:27:14.069Z,31.35
2023-10-26T05:29:40.783Z,49.28
2023-10-26T05:32:07.580Z,43.78
2023-10-26T05:34:34.270Z,32.20
2023-10-26T05:37:01.077Z,45.67
2023-10-26T05:39:27.652Z,36.67
2023-10-26T05:41:54.282Z,32.53
2023-10-26T05:44:20.930Z,27.75
2023-10-26T05:46:47.670Z,47.30
2023-10-26T05:49:14.285Z,34.97
2023-10-26T05:51:40.901Z,43.47
2023-10-26T05:54:08.132Z,29.88
2023-10-26T05:56:34.864Z,48.42
2023-10-26T05:59:01.671Z,32.58
2023-10-26T06:01:30.516Z,40.10
2023-10-26T06:03:58.525Z,51.70
2023-10-26T06:06:25.118Z,48.70
2023-10-26T06:08:51.991Z,44.83
2023-10-26T06:11:19.667Z,34.92
2023-10-26T06:13:47.430Z,38.95
2023-10-26T06:16:17.450Z,34.10
2023-10-26T06:18:44.295Z,38.58
2023-10-26T06:21:11.012Z,42.50
2023-10-26T06:23:37.698Z,38.17
2023-10-26T06:26:04.715Z,54.40
2023-10-26T06:28:31.514Z,21.83
2023-10-26T06:31:08.322Z,29.08
2023-10-26T06:33:35.012Z,29.45
2023-10-26T06:36:01.607Z,26.52
2023-10-26T06:38:28.296Z,35.47
2023-10-26T06:40:56.026Z,40.35
2023-10-26T06:43:25.725Z,34.13
2023-10-26T06:45:52.302Z,54.13
2023-10-26T06:48:22.189Z,49.97
2023-10-26T06:50:49.115Z,44.95
2023-10-26T06:53:15.850Z,23.80
2023-10-26T06:55:44.004Z,36.78
2023-10-26T06:58:10.655Z,50.85
2023-10-26T07:00:37.296Z,55.05
2023-10-26T07:03:04.058Z,34.67
2023-10-26T07:05:32.800Z,48.88
2023-10-26T07:08:00.955Z,30.23
2023-10-26T07:10:28.124Z,29.20
2023-10-26T07:12:54.906Z,37.42
2023-10-26T07:15:21.588Z,33.90
2023-10-26T07:17:48.442Z,26.13
2023-10-26T07:20:15.206Z,26.65
2023-10-26T07:22:43.660Z,42.25
2023-10-26T07:25:10.497Z,39.58
2023-10-26T07:27:38.631Z,29.30
2023-10-26T07:30:06.055Z,24.58
2023-10-26T07:32:32.841Z,23.58
2023-10-26T07:35:04.016Z,22.95
2023-10-26T07:37:31.143Z,22.58
2023-10-26T07:42:44.642Z,23.80
2023-10-26T07:45:11.289Z,23.00
2023-10-26T07:47:37.836Z,20.23
2023-10-26T07:50:07.492Z,20.17
2023-10-26T07:52:34.119Z,22.75
2023-10-26T07:55:00.849Z,22.42
2023-10-26T07:57:27.465Z,19.75
2023-10-26T07:59:54.162Z,22.40
2023-10-26T08:02:20.858Z,19.92
2023-10-26T08:04:48.772Z,20.88
2023-10-26T08:07:15.481Z,19.33
2023-10-26T08:09:42.138Z,19.52
2023-10-26T08:12:08.928Z,19.10
2023-10-26T08:16:28.406Z,18.65
2023-10-26T08:17:24.669Z,18.92
2023-10-26T08:19:52.187Z,19.45
2023-10-26T08:22:18.912Z,18.33
2023-10-26T08:24:45.668Z,18.65
2023-10-26T08:27:12.300Z,18.80
2023-10-26T08:29:39.076Z,19.50
2023-10-26T08:32:06.190Z,18.52
2023-10-26T08:34:33.174Z,18.67
2023-10-26T08:37:12.291Z,19.33
2023-10-26T08:39:40.218Z,19.15
2023-10-26T08:42:06.920Z,18.67
2023-10-26T08:44:33.653Z,19.42
2023-10-26T08:47:03.014Z,19.35
2023-10-26T08:49:31.025Z,17.85
2023-10-26T08:51:57.905Z,18.83
2023-10-26T08:54:24.657Z,19.77
2023-10-26T08:56:51.265Z,18.73
2023-10-26T08:59:20.831Z,19.25
2023-10-26T09:01:48.981Z,19.38
2023-10-26T09:04:16.020Z,20.25
2023-10-26T09:06:46.566Z,18.98
2023-10-26T09:09:13.828Z,17.70
2023-10-26T09:11:40.553Z,17.02
2023-10-26T09:14:14.962Z,17.67
2023-10-26T09:16:42.520Z,18.17
2023-10-26T09:19:09.380Z,18.90
2023-10-26T09:21:55.423Z,18.88
2023-10-26T09:24:25.716Z,16.83
2023-10-26T09:26:56.118Z,16.60
2023-10-26T09:29:35.367Z,18.48
2023-10-26T09:32:02.106Z,16.55
2023-10-26T09:34:29.140Z,16.23
2023-10-26T09:37:02.821Z,16.25
2023-10-26T09:39:30.201Z,16.85
2023-10-26T09:41:58.003Z,16.13
2023-10-26T09:44:25.550Z,16.60
2023-10-26T09:46:52.229Z,17.23
2023-10-26T09:49:19.157Z,16.63
2023-10-26T09:51:46.587Z,16.92
2023-10-26T09:54:15.090Z,17.33
2023-10-26T09:56:44.984Z,16.92
2023-10-26T09:59:12.158Z,18.08
2023-10-26T10:01:39.566Z,18.05
2023-10-26T10:04:06.711Z,16.58
2023-10-26T10:06:52.399Z,16.67
2023-10-26T10:09:20.889Z,16.80
2023-10-26T10:12:09.132Z,16.05
2023-10-26T10:14:48.029Z,17.25
2023-10-26T10:17:20.743Z,14.98
2023-10-26T10:19:48.345Z,15.57
2023-10-26T10:22:33.727Z,15.73
2023-10-26T10:27:28.224Z,16.27
2023-10-26T10:29:58.489Z,15.38
2023-10-26T10:32:43.838Z,15.85
2023-10-26T10:35:11.464Z,16.73
2023-10-26T10:37:38.650Z,15.73
2023-10-26T10:40:13.081Z,16.58
2023-10-26T10:42:40.717Z,15.15
2023-10-26T10:45:12.592Z,14.32
2023-10-26T10:47:40.060Z,15.20
2023-10-26T10:50:23.307Z,14.05
2023-10-26T10:52:51.022Z,13.85
2023-10-26T10:55:25.804Z,14.45
2023-10-26T10:57:53.800Z,13.25
2023-10-26T11:00:21.078Z,13.60
2023-10-26T11:02:49.123Z,13.10
2023-10-26T11:05:18.909Z,13.60
2023-10-26T11:07:46.133Z,13.80
2023-10-26T11:10:12.828Z,13.02
2023-10-26T11:12:39.639Z,14.32
2023-10-26T11:15:08.868Z,13.93
2023-10-26T11:17:35.945Z,13.38
2023-10-26T11:20:04.356Z,13.45
2023-10-26T11:22:31.095Z,12.18
2023-10-26T11:24:57.816Z,12.48
2023-10-26T11:27:24.617Z,12.38
2023-10-26T11:30:01.254Z,12.30
2023-10-26T11:32:29.733Z,13.50
2023-10-26T11:35:02.781Z,12.63
2023-10-26T11:37:30.487Z,12.20
2023-10-26T11:39:57.210Z,12.35
2023-10-26T11:42:42.528Z,11.25
2023-10-26T11:45:09.207Z,11.55
2023-10-26T11:47:46.368Z,11.57
2023-10-26T11:50:20.718Z,10.50
2023-10-26T11:52:47.659Z,10.00
2023-10-26T11:55:17.536Z,10.90
2023-10-26T11:57:44.657Z,10.35
2023-10-26T12:00:12.920Z,11.35
2023-10-26T12:02:40.591Z,10.90
2023-10-26T12:05:13.109Z,10.63
2023-10-26T12:07:39.730Z,10.65
2023-10-26T12:10:06.612Z,11.23
2023-10-26T12:12:33.498Z,11.70
2023-10-26T12:15:00.275Z,10.90
2023-10-26T12:17:27.274Z,10.05
2023-10-26T12:19:53.860Z,9.68
2023-10-26T12:22:21.736Z,9.43
2023-10-26T12:24:48.557Z,6.75
2023-10-26T12:27:19.316Z,6.25
2023-10-26T12:29:46.358Z,6.43
2023-10-26T12:32:13.624Z,6.60
2023-10-26T12:34:40.588Z,6.15
2023-10-26T12:37:07.266Z,5.82
2023-10-26T12:39:34.112Z,5.47
2023-10-26T12:42:00.777Z,5.57
2023-10-26T12:44:27.523Z,5.57
2023-10-26T12:46:55.094Z,5.95
2023-10-26T12:49:24.851Z,6.82
2023-10-26T12:51:52.226Z,7.32
2023-10-26T12:54:19.412Z,6.45
2023-10-26T12:56:46.149Z,7.00
2023-10-26T12:59:12.937Z,7.10
2023-10-26T13:01:39.860Z,7.30
2023-10-26T13:04:06.785Z,7.00
2023-10-26T13:06:36.253Z,7.75
2023-10-26T13:09:03.559Z,7.45
2023-10-26T13:11:30.146Z,8.18
2023-10-26T13:13:56.681Z,6.70
2023-10-26T13:16:23.833Z,7.35
2023-10-26T13:18:50.959Z,6.60
2023-10-26T13:21:17.700Z,6.65
2023-10-26T13:23:44.581Z,6.50
2023-10-26T13:26:11.309Z,6.22
2023-10-26T13:28:38.053Z,6.22
2023-10-26T13:31:04.968Z,6.18
2023-10-26T13:33:31.788Z,7.15
2023-10-26T13:35:58.523Z,6.50
2023-10-26T13:38:25.270Z,7.18
2023-10-26T13:40:51.855Z,7.38
2023-10-26T13:43:18.732Z,7.93
2023-10-26T13:45:45.404Z,8.77
2023-10-26T13:48:12.145Z,8.98
2023-10-26T13:50:39.695Z,8.60
2023-10-26T13:53:06.600Z,9.18
2023-10-26T13:55:33.846Z,9.07
2023-10-26T13:58:00.757Z,8.77
2023-10-26T14:00:27.397Z,8.68
2023-10-26T14:02:54.022Z,8.43
2023-10-26T14:07:50.726Z,9.52
2023-10-26T14:10:17.362Z,8.75
2023-10-26T14:12:44.319Z,9.02
2023-10-26T14:15:12.033Z,9.63
2023-10-26T14:17:40.475Z,10.05
2023-10-26T14:20:07.697Z,9.73
2023-10-26T14:22:34.686Z,9.27
2023-10-26T14:25:02.171Z,9.93
2023-10-26T14:27:30.306Z,8.77
2023-10-26T14:29:56.974Z,8.82
2023-10-26T14:32:23.664Z,8.65
2023-10-26T14:34:50.324Z,9.20
2023-10-26T14:37:16.988Z,8.98
2023-10-26T14:39:43.715Z,9.70
2023-10-26T14:42:11.698Z,10.40
2023-10-26T14:44:38.870Z,9.52
2023-10-26T14:47:06.537Z,9.20
2023-10-26T14:49:33.313Z,10.18
2023-10-26T14:52:01.247Z,9.40
2023-10-26T14:54:28.105Z,9.50
2023-10-26T14:56:54.836Z,9.77
2023-10-26T14:59:21.420Z,10.10
2023-10-26T15:01:48.211Z,9.85
2023-10-26T15:04:14.904Z,9.63
2023-10-26T15:06:41.609Z,10.25
2023-10-26T15:09:09.754Z,10.43
2023-10-26T15:11:55.822Z,10.43
2023-10-26T15:14:23.311Z,10.40
2023-10-26T15:16:50.215Z,9.60
2023-10-26T15:19:16.833Z,11.00
2023-10-26T15:21:43.560Z,11.52
2023-10-26T15:24:10.265Z,14.98
2023-10-26T15:26:37.170Z,14.63
2023-10-26T15:29:04.063Z,19.02
2023-10-26T15:31:31.214Z,20.95
2023-10-26T15:34:00.607Z,41.30
2023-10-26T15:36:27.381Z,20.35
2023-10-26T15:38:58.276Z,14.23
2023-10-26T15:41:24.964Z,11.80
2023-10-26T15:43:51.855Z,11.68
2023-10-26T15:46:18.525Z,10.85
2023-10-26T15:49:34.925Z,10.32
2023-10-26T15:53:58.960Z,11.77
2023-10-26T15:56:25.562Z,11.20
2023-10-26T15:58:52.752Z,11.80
2023-10-26T16:01:20.776Z,11.48
2023-10-26T16:03:47.801Z,12.70
2023-10-26T16:06:15.395Z,14.68
2023-10-26T16:08:42.289Z,13.52
2023-10-26T16:11:12.531Z,13.45
2023-10-26T16:13:39.339Z,15.95
2023-10-26T16:16:06.290Z,14.68
2023-10-26T16:18:33.035Z,14.65
2023-10-26T16:20:59.716Z,14.40
2023-10-26T16:23:27.378Z,14.40
2023-10-26T16:25:55.109Z,13.73
2023-10-26T16:28:21.934Z,14.45
2023-10-26T16:30:49.411Z,14.25
2023-10-26T16:33:16.161Z,23.83
2023-10-26T16:35:44.214Z,78.43
2023-10-26T16:38:10.877Z,70.90
2023-10-26T16:40:37.512Z,32.83
2023-10-26T16:43:05.734Z,22.88
2023-10-26T16:45:32.468Z,17.85
2023-10-26T16:47:59.238Z,16.55
2023-10-26T16:50:26.518Z,17.10
2023-10-26T16:52:53.203Z,15.05
2023-10-26T16:55:20.789Z,17.25
2023-10-26T16:57:49.550Z,16.30
2023-10-26T17:00:16.995Z,17.70
2023-10-26T17:02:44.354Z,17.73
2023-10-26T17:05:11.101Z,16.02
2023-10-26T17:07:42.853Z,29.73
2023-10-26T17:10:10.480Z,17.52
2023-10-26T17:12:42.308Z,53.03
2023-10-26T17:15:10.859Z,18.88
2023-10-26T17:17:37.466Z,18.17
2023-10-26T17:20:04.665Z,17.15
2023-10-26T17:22:31.206Z,17.67
2023-10-26T17:24:58.286Z,18.00
2023-10-26T17:27:24.943Z,18.33
2023-10-26T17:29:51.611Z,17.20
2023-10-26T17:32:18.144Z,16.35
2023-10-26T17:34:44.881Z,18.15
2023-10-26T17:37:11.530Z,17.92
2023-10-26T17:39:38.401Z,18.15
2023-10-26T17:42:06.714Z,17.88
2023-10-26T17:44:33.868Z,18.20
2023-10-26T17:47:00.790Z,17.90
2023-10-26T17:49:28.392Z,18.33
2023-10-26T17:51:55.114Z,31.95
2023-10-26T17:54:21.727Z,20.38
2023-10-26T17:56:48.346Z,19.90
2023-10-26T17:59:15.140Z,20.52
2023-10-26T18:01:42.099Z,20.20
2023-10-26T18:04:09.758Z,20.65
2023-10-26T18:06:36.431Z,19.90
2023-10-26T18:09:03.089Z,20.38
2023-10-26T18:11:29.725Z,21.08
2023-10-26T18:13:56.381Z,19.63
2023-10-26T18:16:23.163Z,20.23
2023-10-26T18:18:49.856Z,19.85
2023-10-26T18:21:16.659Z,20.17
2023-10-26T18:23:43.312Z,22.05
2023-10-26T18:26:10.971Z,20.17
2023-10-26T18:28:38.509Z,20.17
2023-10-26T18:31:12.469Z,20.27
2023-10-26T18:33:40.590Z,19.75
2023-10-26T18:36:10.296Z,19.05
2023-10-26T18:38:39.995Z,21.75
2023-10-26T18:41:06.681Z,22.05
2023-10-26T18:43:33.810Z,19.80
2023-10-26T18:46:01.127Z,20.80
2023-10-26T18:48:35.507Z,22.40
2023-10-26T18:51:02.820Z,21.80
2023-10-26T18:53:29.749Z,24.13
2023-10-26T18:55:56.866Z,23.50
2023-10-26T18:58:26.023Z,21.02
2023-10-26T19:00:53.260Z,22.17
2023-10-26T19:03:20.715Z,22.13
2023-10-26T19:05:48.688Z,21.60
2023-10-26T19:08:16.338Z,21.98
2023-10-26T19:10:43.278Z,22.15
2023-10-26T19:13:10.393Z,21.15
2023-10-26T19:15:37.242Z,26.45
2023-10-26T19:18:04.100Z,23.95
2023-10-26T19:20:34.644Z,24.50
2023-10-26T19:23:01.611Z,23.10
2023-10-26T19:25:28.990Z,21.27
2023-10-26T19:27:56.542Z,21.02
2023-10-26T19:30:26.343Z,21.83
2023-10-26T19:33:01.974Z,21.42
2023-10-26T19:35:29.306Z,21.73
2023-10-26T19:37:56.290Z,21.73
2023-10-26T19:40:23.246Z,21.17
2023-10-26T19:42:50.068Z,20.08
2023-10-26T19:45:16.828Z,20.63
2023-10-26T19:47:44.466Z,20.73
2023-10-26T19:50:14.740Z,20.20
2023-10-26T19:52:43.879Z,20.13
2023-10-26T19:55:11.248Z,19.95
2023-10-26T19:57:38.418Z,19.33
2023-10-26T20:00:10.653Z,19.10
2023-10-26T20:02:40.409Z,19.07
2023-10-26T20:05:07.363Z,19.52
2023-10-26T20:07:34.021Z,19.98
2023-10-26T20:10:00.604Z,19.98
2023-10-26T20:12:27.546Z,18.55
2023-10-26T20:14:54.215Z,19.70
2023-10-26T20:17:20.984Z,19.58
2023-10-26T20:19:47.713Z,19.95
2023-10-26T20:22:14.364Z,20.52
2023-10-26T20:24:41.147Z,19.92
2023-10-26T20:27:08.153Z,19.52
2023-10-26T20:29:35.871Z,19.05
2023-10-26T20:32:03.001Z,21.30
2023-10-26T20:34:30.130Z,20.63
2023-10-26T20:36:57.581Z,20.70
2023-10-26T20:39:24.360Z,21.35
2023-10-26T20:41:50.997Z,20.80
2023-10-26T20:44:18.150Z,21.17
2023-10-26T20:46:45.035Z,20.67
2023-10-26T20:49:12.180Z,20.98
2023-10-26T20:51:40.180Z,19.90
2023-10-26T20:54:07.868Z,20.95
2023-10-26T20:56:34.679Z,21.90
2023-10-26T20:59:01.310Z,21.48
2023-10-26T21:01:27.991Z,20.00
2023-10-26T21:03:54.766Z,20.98
2023-10-26T21:06:21.563Z,21.75
2023-10-26T21:08:51.157Z,20.98
2023-10-26T21:11:18.045Z,21.20
2023-10-26T21:13:44.988Z,22.15
2023-10-26T21:16:12.004Z,21.88
2023-10-26T21:18:38.611Z,21.88
2023-10-26T21:21:06.118Z,22.83
2023-10-26T21:23:33.261Z,22.88
2023-10-26T21:26:03.894Z,22.08
2023-10-26T21:28:30.549Z,21.60
2023-10-26T21:30:57.682Z,22.67
2023-10-26T21:33:24.341Z,22.73
2023-10-26T21:35:51.108Z,23.63
2023-10-26T21:38:18.187Z,23.40
2023-10-26T21:40:45.706Z,23.20
2023-10-26T21:43:12.492Z,22.35
2023-10-26T21:45:39.362Z,23.88
2023-10-26T21:48:06.160Z,22.08
2023-10-26T21:50:33.577Z,23.50
2023-10-26T21:53:00.178Z,22.83
2023-10-26T21:55:26.868Z,22.73
2023-10-26T21:57:53.586Z,23.83
2023-10-26T22:00:25.688Z,22.80
2023-10-26T22:02:53.522Z,23.67
2023-10-26T22:05:20.146Z,23.17
2023-10-26T22:07:47.556Z,23.50
2023-10-26T22:10:16.655Z,22.27
2023-10-26T22:12:43.478Z,22.88
2023-10-26T22:15:13.346Z,22.25
2023-10-26T22:17:41.305Z,22.65
2023-10-26T22:20:09.577Z,23.33
2023-10-26T22:22:37.242Z,23.08
2023-10-26T22:25:04.498Z,22.02
2023-10-26T22:27:31.784Z,23.63
2023-10-26T22:29:58.673Z,21.45
2023-10-26T22:32:25.361Z,23.00
2023-10-26T22:34:52.387Z,23.10
2023-10-26T22:37:19.654Z,22.08
2023-10-26T22:39:46.708Z,22.77
2023-10-26T22:42:13.729Z,22.38
2023-10-26T22:44:40.292Z,23.13
2023-10-26T22:47:07.407Z,23.70
2023-10-26T22:49:34.683Z,23.95
2023-10-26T22:52:01.329Z,24.38
2023-10-26T22:54:28.133Z,26.25
2023-10-26T22:56:54.697Z,24.90
2023-10-26T22:59:21.868Z,25.38
2023-10-26T23:01:48.590Z,26.27
2023-10-26T23:04:15.693Z,25.52
2023-10-26T23:06:42.551Z,24.27
2023-10-26T23:09:12.733Z,25.95
2023-10-26T23:11:39.767Z,25.40
2023-10-26T23:14:10.065Z,26.52
2023-10-26T23:16:37.655Z,24.67
2023-10-26T23:19:04.985Z,25.15
2023-10-26T23:21:33.286Z,23.38
2023-10-26T23:24:01.150Z,24.42
2023-10-26T23:26:27.872Z,26.65
2023-10-26T23:28:54.484Z,25.38
2023-10-26T23:31:21.179Z,22.60
2023-10-26T23:33:48.210Z,22.70
2023-10-26T23:36:14.972Z,21.00
2023-10-26T23:38:41.615Z,20.50
2023-10-26T23:41:09.179Z,19.20
2023-10-26T23:46:19.999Z,16.98
2023-10-26T23:48:46.727Z,16.80
2023-10-26T23:51:13.565Z,17.90
2023-10-26T23:53:40.680Z,16.55
2023-10-26T23:56:07.756Z,16.55
2023-10-26T23:58:34.395Z,15.25
